Time;durP1;ratioP1;P1;durP2;ratioP2;P2;SDS_P1;SDS_P2;PMS_P1;PMS_P2;Temp;Humidity;BMP_temperature;BMP_pressure;BME280_temperature;BME280_humidity;BME280_pressure;Samples;Min_cycle;Max_cycle;Signal;HPM_P1;HPM_P2
2024/04/04 00:01:12;;;;;;;1.20;0.40;;;22.20;48.80;;;;;;5094070;28;20376;-39
2024/04/04 00:03:39;;;;;;;1.08;0.52;;;22.20;48.70;;;;;;5106041;28;20039;-37
2024/04/04 00:06:06;;;;;;;0.40;0.40;;;22.20;49.20;;;;;;5099563;28;20044;-37
2024/04/04 00:08:34;;;;;;;0.68;0.50;;;22.20;48.90;;;;;;5101897;28;20087;-37
2024/04/04 00:11:10;;;;;;;0.50;0.30;;;22.20;48.70;;;;;;5097729;28;20038;-39
2024/04/04 00:13:41;;;;;;;1.08;0.47;;;22.20;48.90;;;;;;5125677;28;20047;-35
2024/04/04 00:16:11;;;;;;;0.63;0.30;;;22.10;49.20;;;;;;5110706;28;20148;-39
2024/04/04 00:18:38;;;;;;;0.55;0.30;;;22.10;49.00;;;;;;5111925;28;20032;-37
2024/04/04 00:21:05;;;;;;;0.65;0.30;;;22.10;49.30;;;;;;5096642;28;20032;-36
2024/04/04 00:23:32;;;;;;;0.55;0.30;;;22.10;49.30;;;;;;5097184;28;20091;-37
2024/04/04 00:26:00;;;;;;;0.32;0.32;;;22.00;49.20;;;;;;5103980;27;20047;-37
2024/04/04 00:28:29;;;;;;;0.50;0.30;;;22.00;49.20;;;;;;5092707;28;20170;-36
2024/04/04 00:30:57;;;;;;;0.80;0.60;;;22.00;49.10;;;;;;5102573;28;20606;-35
2024/04/04 00:33:25;;;;;;;1.02;0.32;;;22.00;49.20;;;;;;5103149;28;20056;-36
2024/04/04 00:35:55;;;;;;;2.58;0.40;;;22.00;49.10;;;;;;5095646;28;20086;-39
2024/04/04 00:38:22;;;;;;;1.45;0.60;;;21.90;49.10;;;;;;5108125;27;20032;-38
2024/04/04 00:40:50;;;;;;;0.93;0.40;;;21.90;49.20;;;;;;5114296;28;20704;-36
2024/04/04 00:43:16;;;;;;;0.80;0.40;;;21.90;48.90;;;;;;5115549;27;20184;-38
2024/04/04 00:45:45;;;;;;;0.50;0.40;;;21.90;48.90;;;;;;5104242;28;20029;-38
2024/04/04 00:48:12;;;;;;;0.82;0.38;;;21.80;48.80;;;;;;5097029;28;20109;-35
2024/04/04 00:50:42;;;;;;;0.30;0.30;;;21.80;48.80;;;;;;5092302;27;20052;-35
2024/04/04 00:53:09;;;;;;;1.20;0.40;;;21.80;48.80;;;;;;5085311;28;20090;-39
2024/04/04 00:55:36;;;;;;;0.50;0.40;;;21.80;48.80;;;;;;5084038;28;20103;-36
2024/04/04 00:58:04;;;;;;;0.70;0.30;;;21.70;48.60;;;;;;5106242;28;20019;-36
2024/04/04 01:00:33;;;;;;;0.55;0.30;;;21.70;48.60;;;;;;5092501;28;20032;-35
2024/04/04 01:03:00;;;;;;;0.82;0.50;;;21.70;48.70;;;;;;5094776;28;20052;-37
2024/04/04 01:05:28;;;;;;;0.60;0.40;;;21.70;48.60;;;;;;5101473;28;20055;-35
2024/04/04 01:07:57;;;;;;;0.60;0.35;;;21.60;48.70;;;;;;5086854;28;20086;-34
2024/04/04 01:10:24;;;;;;;0.43;0.30;;;21.60;48.70;;;;;;5109721;28;20081;-37
2024/04/04 01:12:51;;;;;;;1.00;0.43;;;21.60;48.80;;;;;;5097818;28;20046;-36
2024/04/04 01:15:18;;;;;;;0.40;0.40;;;21.60;48.80;;;;;;5112661;28;20064;-39
2024/04/04 01:17:45;;;;;;;0.63;0.30;;;21.60;48.80;;;;;;5105686;28;20048;-36
2024/04/04 01:20:12;;;;;;;;;;;21.50;48.80;;;;;;5097052;28;20091;-35
2024/04/04 01:22:40;;;;;;;0.30;0.30;;;21.60;48.80;;;;;;5103232;28;19915;-32
2024/04/04 01:25:08;;;;;;;0.57;0.35;;;21.50;48.80;;;;;;5099065;28;20040;-38
2024/04/04 01:27:43;;;;;;;0.75;0.43;;;21.50;49.10;;;;;;5110142;28;20028;-37
2024/04/04 01:30:10;;;;;;;0.30;0.30;;;21.50;48.90;;;;;;5095066;28;20040;-37
2024/04/04 01:32:40;;;;;;;0.45;0.40;;;21.40;48.80;;;;;;5111592;28;20065;-37
2024/04/04 01:35:09;;;;;;;1.20;0.30;;;21.40;48.90;;;;;;5113101;28;20027;-37
2024/04/04 01:37:38;;;;;;;1.70;0.40;;;21.40;48.90;;;;;;5115345;27;20034;-38
2024/04/04 01:40:08;;;;;;;0.30;0.30;;;21.40;48.90;;;;;;5088573;28;20564;-40
2024/04/04 01:42:35;;;;;;;0.50;0.50;;;21.30;48.90;;;;;;5092009;28;20036;-37
2024/04/04 01:45:02;;;;;;;0.55;0.30;;;21.30;49.00;;;;;;5102172;28;20166;-35
2024/04/04 01:47:31;;;;;;;2.08;0.40;;;21.30;48.90;;;;;;5092555;28;20096;-37
2024/04/04 01:49:58;;;;;;;0.63;0.40;;;21.30;49.00;;;;;;5087662;28;20094;-36
2024/04/04 01:52:25;;;;;;;0.38;0.30;;;21.30;49.00;;;;;;5096321;28;20919;-38
2024/04/04 01:54:53;;;;;;;0.30;0.30;;;21.20;49.00;;;;;;5089538;28;20035;-33
2024/04/04 01:57:20;;;;;;;0.28;0.20;;;21.20;48.90;;;;;;5092414;28;20075;-37
2024/04/04 01:59:53;;;;;;;0.60;0.30;;;21.20;49.00;;;;;;5096278;28;20028;-34
2024/04/04 02:02:25;;;;;;;0.40;0.40;;;21.20;49.10;;;;;;5102104;28;20165;-36
2024/04/04 02:04:52;;;;;;;0.50;0.40;;;21.10;49.10;;;;;;5096475;28;20024;-34
2024/04/04 02:07:19;;;;;;;0.40;0.40;;;21.10;49.10;;;;;;5107255;28;20032;-37
2024/04/04 02:09:46;;;;;;;0.82;0.40;;;21.10;49.10;;;;;;5101613;28;20381;-36
2024/04/04 02:12:13;;;;;;;0.40;0.30;;;21.10;49.20;;;;;;5104312;28;20028;-37
2024/04/04 02:14:42;;;;;;;0.75;0.40;;;21.00;49.10;;;;;;5133937;27;20039;-37
2024/04/04 02:17:11;;;;;;;1.58;0.43;;;21.00;49.10;;;;;;5105924;27;20036;-38
2024/04/04 02:19:39;;;;;;;0.70;0.38;;;21.00;49.10;;;;;;5097029;28;20020;-35
2024/04/04 02:22:10;;;;;;;0.80;0.35;;;20.90;49.20;;;;;;5100004;28;20032;-38
2024/04/04 02:24:42;;;;;;;0.75;0.30;;;20.90;49.10;;;;;;5120962;27;20028;-36
2024/04/04 02:27:13;;;;;;;0.47;0.30;;;20.90;49.20;;;;;;5104023;28;20036;-35
2024/04/04 02:29:45;;;;;;;0.30;0.30;;;20.90;49.20;;;;;;5085838;28;20040;-36
2024/04/04 02:32:15;;;;;;;0.65;0.30;;;20.90;49.20;;;;;;5115984;28;20101;-34
2024/04/04 02:34:45;;;;;;;0.85;0.45;;;20.90;49.20;;;;;;5110921;28;20011;-37
2024/04/04 02:37:17;;;;;;;0.38;0.30;;;20.80;49.20;;;;;;5114409;28;20141;-36
2024/04/04 02:39:44;;;;;;;0.60;0.50;;;20.80;49.20;;;;;;5100145;28;20035;-37
2024/04/04 02:42:11;;;;;;;0.73;0.45;;;20.80;49.80;;;;;;5119509;28;20024;-34
2024/04/04 02:44:55;;;;;;;1.25;0.40;;;20.80;49.20;;;;;;5112466;28;20054;-31
2024/04/04 02:50:06;;;;;;;0.40;0.32;;;20.70;49.20;;;;;;5209790;22;19928;-45
2024/04/04 02:52:33;;;;;;;0.50;0.40;;;20.70;49.30;;;;;;5082629;28;20078;-45
2024/04/04 02:55:00;;;;;;;0.73;0.38;;;20.70;49.30;;;;;;5085726;28;20093;-46
2024/04/04 02:57:29;;;;;;;1.02;0.40;;;20.60;49.20;;;;;;5084303;28;20400;-44
2024/04/04 02:59:57;;;;;;;0.65;0.40;;;20.60;49.20;;;;;;5088424;28;20028;-45
2024/04/04 03:02:23;;;;;;;0.40;0.40;;;20.60;49.30;;;;;;5087065;28;20480;-45
2024/04/04 03:04:52;;;;;;;0.80;0.50;;;20.60;49.30;;;;;;5089084;28;20079;-43
2024/04/04 03:07:18;;;;;;;1.17;0.47;;;20.60;49.40;;;;;;5079524;28;20111;-45
2024/04/04 03:09:47;;;;;;;0.45;0.45;;;20.50;49.30;;;;;;5074566;28;20022;-52
2024/04/04 03:12:13;;;;;;;1.33;0.30;;;20.50;49.20;;;;;;5080210;28;20511;-45
2024/04/04 03:14:40;;;;;;;0.82;0.43;;;20.50;49.30;;;;;;5081449;28;20115;-44
2024/04/04 03:17:06;;;;;;;0.73;0.43;;;20.40;49.30;;;;;;5082034;28;20485;-44
2024/04/04 03:19:33;;;;;;;0.50;0.47;;;20.40;49.30;;;;;;5074947;28;20032;-45
2024/04/04 03:21:59;;;;;;;0.70;0.50;;;20.40;49.30;;;;;;5082535;28;20460;-45
2024/04/04 03:24:26;;;;;;;0.45;0.40;;;20.40;49.30;;;;;;5082325;28;20028;-46
2024/04/04 03:26:52;;;;;;;0.40;0.40;;;20.30;49.30;;;;;;5089834;28;20024;-43
2024/04/04 03:29:18;;;;;;;1.08;0.50;;;20.30;49.30;;;;;;5080959;28;20040;-44
2024/04/04 03:32:04;;;;;;;0.60;0.30;;;20.30;49.30;;;;;;5082300;28;20020;-43
2024/04/04 03:34:32;;;;;;;0.30;0.30;;;20.30;49.40;;;;;;5039561;28;20037;-43
2024/04/04 03:36:59;;;;;;;0.90;0.40;;;20.30;49.40;;;;;;5039829;28;20100;-46
2024/04/04 03:39:25;;;;;;;0.37;0.37;;;20.20;49.40;;;;;;5039695;28;20125;-43
2024/04/04 03:41:52;;;;;;;0.40;0.20;;;20.20;49.30;;;;;;5038663;28;20037;-45
2024/04/04 03:44:18;;;;;;;0.70;0.50;;;20.20;49.30;;;;;;5039492;28;20057;-44
2024/04/04 03:46:44;;;;;;;0.40;0.30;;;20.20;49.30;;;;;;5039645;28;20026;-43
2024/04/04 03:49:11;;;;;;;0.32;0.32;;;20.10;49.30;;;;;;5039326;28;20081;-44
2024/04/04 03:51:37;;;;;;;0.40;0.40;;;20.10;49.90;;;;;;5039758;28;20029;-47
2024/04/04 03:54:03;;;;;;;0.45;0.40;;;20.10;49.40;;;;;;5039506;28;20120;-44
2024/04/04 03:56:29;;;;;;;0.40;0.37;;;20.10;49.40;;;;;;5039670;28;20029;-44
2024/04/04 03:58:57;;;;;;;0.55;0.38;;;20.10;49.40;;;;;;5039616;28;20037;-43
2024/04/04 04:01:24;;;;;;;0.47;0.40;;;20.00;49.30;;;;;;5039007;28;20839;-44
2024/04/04 04:03:52;;;;;;;0.50;0.30;;;20.00;49.90;;;;;;5039455;28;20654;-43
2024/04/04 04:06:18;;;;;;;0.35;0.35;;;20.00;49.40;;;;;;5039160;28;20045;-46
2024/04/04 04:08:45;;;;;;;0.73;0.40;;;20.00;49.40;;;;;;5022069;28;20026;-45
2024/04/04 04:11:11;;;;;;;0.30;0.30;;;19.90;49.40;;;;;;5048796;28;20041;-44
2024/04/04 04:13:37;;;;;;;0.40;0.40;;;19.90;49.40;;;;;;5082455;28;20035;-44
2024/04/04 04:16:04;;;;;;;1.60;0.40;;;19.90;49.40;;;;;;5082430;28;20393;-46
2024/04/04 04:18:31;;;;;;;0.85;0.38;;;19.90;49.40;;;;;;5083497;28;20028;-47
2024/04/04 04:23:53;;;;;;;0.40;0.32;;;19.80;49.40;;;;;;5072394;28;20036;-45
2024/04/04 04:26:19;;;;;;;0.38;0.30;;;19.80;49.50;;;;;;5073711;28;20123;-43
2024/04/04 04:28:46;;;;;;;0.70;0.40;;;19.80;49.50;;;;;;5068484;28;20024;-44
2024/04/04 04:31:29;;;;;;;1.58;0.40;;;19.70;49.50;;;;;;5089822;28;20104;-45
2024/04/04 04:33:56;;;;;;;1.13;0.50;;;19.70;49.50;;;;;;5077500;28;20152;-43
2024/04/04 04:36:26;;;;;;;0.50;0.32;;;19.70;49.60;;;;;;5083823;28;20080;-45
2024/04/04 04:38:53;;;;;;;0.50;0.30;;;19.70;49.60;;;;;;5085683;28;20146;-44
2024/04/04 04:41:19;;;;;;;0.30;0.30;;;19.60;49.60;;;;;;5052040;28;20029;-47
2024/04/04 04:43:46;;;;;;;0.20;0.20;;;19.60;49.60;;;;;;5082931;28;20356;-43
2024/04/04 04:46:13;;;;;;;0.30;0.30;;;19.60;50.20;;;;;;5090514;28;20045;-43
2024/04/04 04:48:39;;;;;;;1.15;0.32;;;19.60;49.60;;;;;;5093224;28;20281;-43
2024/04/04 04:51:06;;;;;;;0.30;0.30;;;19.60;49.60;;;;;;5072928;28;20732;-44
2024/04/04 04:53:32;;;;;;;0.43;0.30;;;19.50;49.60;;;;;;5073216;28;20037;-42
2024/04/04 04:55:58;;;;;;;0.57;0.47;;;19.50;49.70;;;;;;5085011;28;20661;-43
2024/04/04 04:58:24;;;;;;;0.25;0.25;;;19.50;49.70;;;;;;5094096;28;20365;-45
2024/04/04 05:00:52;;;;;;;0.40;0.40;;;19.50;49.70;;;;;;5100331;28;20028;-44
2024/04/04 05:03:22;;;;;;;0.70;0.40;;;19.40;49.70;;;;;;5078558;28;20045;-44
2024/04/04 05:05:50;;;;;;;0.50;0.32;;;19.50;49.70;;;;;;5085651;28;20067;-46
2024/04/04 05:08:20;;;;;;;0.70;0.38;;;19.40;49.80;;;;;;5087066;28;20040;-44
2024/04/04 05:10:46;;;;;;;0.25;0.25;;;19.40;49.80;;;;;;5093824;28;20024;-45
2024/04/04 05:13:13;;;;;;;0.30;0.28;;;19.40;49.80;;;;;;5074899;28;20568;-47
2024/04/04 05:15:53;;;;;;;0.30;0.23;;;19.50;50.20;;;;;;5081424;28;20051;-45
2024/04/04 05:18:20;;;;;;;0.50;0.30;;;19.50;50.20;;;;;;5074641;28;20029;-44
2024/04/04 05:20:46;;;;;;;0.30;0.30;;;19.50;50.30;;;;;;5080211;28;20028;-44
2024/04/04 05:23:12;;;;;;;0.35;0.35;;;19.40;50.20;;;;;;5077806;28;20044;-46
2024/04/04 05:25:39;;;;;;;0.80;0.38;;;19.40;50.20;;;;;;5092992;28;20020;-44
2024/04/04 05:28:06;;;;;;;0.40;0.40;;;19.40;50.20;;;;;;5068529;28;20021;-45
2024/04/04 05:30:32;;;;;;;;;;;19.40;50.10;;;;;;5092692;28;20092;-44
2024/04/04 05:33:02;;;;;;;0.82;0.30;;;19.40;50.10;;;;;;5084773;28;19930;-45
2024/04/04 05:35:29;;;;;;;0.40;0.30;;;19.30;50.10;;;;;;5083033;28;20033;-45
2024/04/04 05:37:55;;;;;;;0.75;0.30;;;19.30;50.10;;;;;;5082406;28;20028;-46
2024/04/04 05:40:23;;;;;;;0.47;0.30;;;19.30;50.40;;;;;;5102237;28;20079;-44
2024/04/04 05:42:50;;;;;;;0.20;0.20;;;19.40;50.50;;;;;;5102666;28;20024;-43
2024/04/04 05:45:16;;;;;;;0.30;0.30;;;19.40;50.50;;;;;;5094600;28;20063;-43
2024/04/04 05:47:42;;;;;;;0.30;0.30;;;19.40;50.50;;;;;;5102396;28;20039;-43
2024/04/04 05:50:09;;;;;;;0.65;0.30;;;19.40;50.50;;;;;;5092747;28;20114;-43
2024/04/04 05:52:36;;;;;;;0.38;0.28;;;19.30;50.30;;;;;;5073983;28;20046;-45
2024/04/04 05:55:02;;;;;;;2.97;0.40;;;19.30;50.40;;;;;;5081098;28;20089;-43
2024/04/04 05:57:29;;;;;;;0.40;0.20;;;19.30;50.40;;;;;;5090995;28;20067;-44
2024/04/04 05:59:55;;;;;;;0.60;0.30;;;19.20;50.30;;;;;;5090103;28;20049;-45
2024/04/04 06:02:21;;;;;;;0.30;0.30;;;19.30;50.40;;;;;;5088083;28;20044;-43
2024/04/04 06:04:48;;;;;;;0.73;0.20;;;19.30;50.70;;;;;;5079565;28;20106;-45
2024/04/04 06:07:14;;;;;;;0.43;0.20;;;19.30;50.80;;;;;;5072451;28;20125;-44
2024/04/04 06:09:41;;;;;;;0.22;0.20;;;19.30;50.70;;;;;;5087034;28;20020;-44
2024/04/04 06:12:07;;;;;;;0.45;0.20;;;19.30;50.70;;;;;;5094825;28;20028;-43
2024/04/04 06:14:34;;;;;;;0.40;0.20;;;19.30;50.70;;;;;;5092760;28;20060;-43
2024/04/04 06:17:00;;;;;;;0.30;0.30;;;19.30;50.60;;;;;;5082306;28;20029;-44
2024/04/04 06:19:26;;;;;;;0.30;0.30;;;19.30;50.60;;;;;;5080293;28;20032;-45
2024/04/04 06:21:52;;;;;;;0.30;0.30;;;19.20;50.60;;;;;;5083511;28;20033;-44
2024/04/04 06:24:18;;;;;;;0.80;0.30;;;19.20;50.60;;;;;;5091521;28;20039;-43
2024/04/04 06:26:44;;;;;;;0.63;0.20;;;19.20;50.80;;;;;;5087821;28;20025;-43
2024/04/04 06:29:11;;;;;;;0.85;0.30;;;19.30;51.00;;;;;;5087497;28;20127;-45
2024/04/04 06:31:37;;;;;;;1.38;0.20;;;19.30;50.90;;;;;;5082957;28;20024;-46
2024/04/04 06:34:03;;;;;;;0.40;0.25;;;19.30;50.90;;;;;;5080302;28;20062;-45
2024/04/04 06:36:29;;;;;;;0.20;0.20;;;19.30;50.80;;;;;;5097245;28;20030;-45
2024/04/04 06:38:58;;;;;;;0.30;0.30;;;19.20;50.80;;;;;;5084704;28;20106;-44
2024/04/04 06:41:24;;;;;;;0.38;0.30;;;19.20;50.70;;;;;;5082831;28;20032;-46
2024/04/04 06:43:50;;;;;;;0.85;0.30;;;19.30;50.80;;;;;;5091249;28;20028;-43
2024/04/04 06:46:16;;;;;;;0.63;0.40;;;19.20;50.70;;;;;;5097902;28;20173;-45
2024/04/04 06:48:43;;;;;;;0.88;0.30;;;19.20;51.00;;;;;;5091417;28;20070;-45
2024/04/04 06:51:09;;;;;;;0.50;0.30;;;19.20;51.00;;;;;;5089992;28;20550;-43
2024/04/04 06:53:37;;;;;;;1.55;0.28;;;19.30;51.00;;;;;;5075830;28;20040;-45
2024/04/04 06:56:04;;;;;;;0.30;0.22;;;19.30;51.00;;;;;;5090160;28;20039;-43
2024/04/04 06:58:30;;;;;;;0.30;0.30;;;19.20;51.00;;;;;;5091432;28;20032;-43
2024/04/04 07:01:00;;;;;;;0.20;0.20;;;19.20;51.00;;;;;;5088262;28;20052;-43
2024/04/04 07:03:26;;;;;;;0.20;0.20;;;19.20;50.90;;;;;;5077436;28;20032;-45
2024/04/04 07:05:52;;;;;;;0.20;0.20;;;19.20;50.90;;;;;;5082874;28;20032;-43
2024/04/04 07:08:19;;;;;;;0.30;0.28;;;19.20;50.90;;;;;;5093748;28;20037;-45
2024/04/04 07:10:45;;;;;;;0.30;0.30;;;19.20;51.00;;;;;;5091020;28;20020;-44
2024/04/04 07:13:15;;;;;;;0.40;0.20;;;19.30;51.20;;;;;;5081376;28;20300;-44
2024/04/04 07:15:42;;;;;;;0.52;0.30;;;19.20;51.10;;;;;;5078941;28;20027;-44
2024/04/04 07:18:11;;;;;;;0.30;0.30;;;19.20;51.10;;;;;;5094390;28;20032;-43
2024/04/04 07:20:37;;;;;;;0.30;0.30;;;19.20;51.00;;;;;;5078054;28;20032;-44
2024/04/04 07:23:04;;;;;;;0.73;0.22;;;19.20;51.00;;;;;;5063601;28;20505;-44
2024/04/04 07:25:30;;;;;;;1.97;0.20;;;19.20;51.00;;;;;;5073372;28;20036;-44
2024/04/04 07:27:56;;;;;;;0.28;0.20;;;19.20;51.00;;;;;;5069774;28;20039;-43
2024/04/04 07:30:22;;;;;;;0.50;0.30;;;19.20;51.10;;;;;;5064213;28;20040;-43
2024/04/04 07:32:49;;;;;;;0.20;0.20;;;19.20;51.20;;;;;;5070283;28;20033;-44
2024/04/04 07:35:15;;;;;;;0.22;0.20;;;19.20;51.20;;;;;;5063941;28;20108;-46
2024/04/04 07:37:41;;;;;;;1.00;0.40;;;19.20;51.20;;;;;;5080143;28;20091;-45
2024/04/04 07:40:07;;;;;;;0.45;0.30;;;19.30;51.20;;;;;;5079597;28;20032;-44
2024/04/04 07:42:34;;;;;;;0.60;0.47;;;19.20;51.10;;;;;;5068523;28;20040;-44
2024/04/04 07:45:01;;;;;;;0.82;0.30;;;19.20;51.10;;;;;;5083091;28;20025;-44
2024/04/04 07:47:27;;;;;;;1.75;0.30;;;19.20;51.10;;;;;;5081499;28;20395;-48
2024/04/04 07:49:53;;;;;;;1.45;0.30;;;19.10;51.00;;;;;;5080185;28;20048;-43
2024/04/04 07:52:22;;;;;;;0.40;0.30;;;19.10;51.20;;;;;;5081212;28;20556;-45
2024/04/04 07:54:48;;;;;;;0.68;0.20;;;19.20;51.30;;;;;;5081585;28;20084;-44
2024/04/04 07:57:14;;;;;;;0.57;0.25;;;19.20;51.30;;;;;;5097378;28;20037;-46
2024/04/04 07:59:43;;;;;;;0.55;0.30;;;19.20;51.30;;;;;;5092956;28;20035;-44
2024/04/04 08:02:09;;;;;;;0.22;0.22;;;19.20;51.20;;;;;;5079585;28;20058;-45
2024/04/04 08:04:35;;;;;;;0.20;0.20;;;19.20;51.20;;;;;;5071943;28;20063;-44
2024/04/04 08:07:01;;;;;;;0.22;0.22;;;19.20;51.20;;;;;;5068453;28;20690;-45
2024/04/04 08:09:28;;;;;;;0.73;0.30;;;19.10;51.10;;;;;;5080999;28;20044;-44
2024/04/04 08:11:54;;;;;;;0.30;0.30;;;19.10;51.30;;;;;;5081711;28;20111;-44
2024/04/04 08:14:22;;;;;;;0.30;0.30;;;19.20;51.40;;;;;;5073847;28;20040;-44
2024/04/04 08:16:48;;;;;;;0.20;0.20;;;19.20;51.40;;;;;;5066770;28;20040;-44
2024/04/04 08:19:14;;;;;;;1.70;0.20;;;19.20;51.40;;;;;;5071846;28;20088;-46
2024/04/04 08:21:40;;;;;;;0.50;0.30;;;19.20;51.40;;;;;;5082356;28;20758;-46
2024/04/04 08:24:06;;;;;;;0.68;0.30;;;19.20;51.30;;;;;;5075597;28;20037;-44
2024/04/04 08:26:32;;;;;;;0.28;0.28;;;19.20;51.30;;;;;;5097558;28;20105;-45
2024/04/04 08:28:59;;;;;;;0.40;0.20;;;19.10;51.20;;;;;;5085371;28;20016;-42
2024/04/04 08:31:25;;;;;;;0.30;0.30;;;19.10;51.40;;;;;;5091916;28;20043;-43
2024/04/04 08:33:51;;;;;;;0.15;0.15;;;19.20;51.50;;;;;;5080683;28;20040;-45
2024/04/04 08:36:18;;;;;;;1.02;0.30;;;19.20;51.40;;;;;;5090739;28;20052;-45
2024/04/04 08:38:44;;;;;;;0.50;0.20;;;19.20;51.40;;;;;;5091713;28;20044;-44
2024/04/04 08:41:10;;;;;;;1.55;0.20;;;19.20;51.40;;;;;;5098779;28;20027;-48
2024/04/04 08:43:37;;;;;;;0.45;0.30;;;19.10;51.40;;;;;;5093788;28;20092;-45
2024/04/04 08:46:06;;;;;;;0.40;0.25;;;19.10;51.30;;;;;;5085703;28;20036;-45
2024/04/04 08:48:33;;;;;;;0.60;0.30;;;19.10;51.40;;;;;;5091170;28;20134;-46
2024/04/04 08:51:00;;;;;;;0.47;0.30;;;19.20;51.50;;;;;;5088768;28;20054;-44
2024/04/04 08:53:26;;;;;;;0.30;0.30;;;19.20;51.50;;;;;;5101066;28;20036;-46
2024/04/04 08:55:56;;;;;;;0.20;0.20;;;19.20;51.50;;;;;;5095654;28;20070;-44
2024/04/04 08:58:23;;;;;;;0.22;0.20;;;19.20;51.50;;;;;;5102954;28;20035;-47
2024/04/04 09:00:49;;;;;;;0.40;0.25;;;19.10;51.40;;;;;;5099981;28;20653;-45
2024/04/04 09:03:16;;;;;;;0.30;0.30;;;19.10;51.50;;;;;;5084091;28;20037;-46
2024/04/04 09:06:01;;;;;;;0.50;0.40;;;19.10;51.40;;;;;;5083107;28;20028;-46
2024/04/04 09:08:30;;;;;;;0.60;0.20;;;19.10;51.50;;;;;;5084007;28;20055;-44
2024/04/04 09:11:03;;;;;;;0.28;0.28;;;19.10;51.50;;;;;;5085161;28;20028;-44
2024/04/04 09:13:30;;;;;;;0.40;0.30;;;19.20;51.60;;;;;;5088802;28;20044;-45
2024/04/04 09:16:03;;;;;;;0.40;0.30;;;19.20;51.50;;;;;;5079180;28;20032;-44
2024/04/04 09:18:29;;;;;;;0.50;0.20;;;19.10;51.50;;;;;;5084991;28;20068;-46
2024/04/04 09:21:02;;;;;;;0.40;0.20;;;19.10;51.50;;;;;;5074503;28;20028;-45
2024/04/04 09:23:30;;;;;;;0.22;0.20;;;19.10;51.50;;;;;;5083157;28;20029;-44
2024/04/04 09:25:57;;;;;;;0.20;0.20;;;19.10;51.50;;;;;;5090602;28;20110;-45
2024/04/04 09:28:23;;;;;;;0.45;0.20;;;19.10;51.60;;;;;;5084576;28;20037;-46
2024/04/04 09:30:50;;;;;;;0.20;0.20;;;19.20;51.60;;;;;;5103454;28;20031;-45
2024/04/04 09:33:18;;;;;;;0.30;0.20;;;19.20;51.60;;;;;;5092837;28;20061;-47
2024/04/04 09:35:46;;;;;;;1.20;0.30;;;19.10;51.50;;;;;;5094219;28;20063;-49
2024/04/04 09:38:13;;;;;;;0.10;0.10;;;19.10;51.50;;;;;;5086553;28;20052;-43
2024/04/04 09:40:39;;;;;;;0.35;0.30;;;19.10;51.50;;;;;;5083612;28;20051;-46
2024/04/04 09:43:06;;;;;;;0.32;0.20;;;19.10;51.50;;;;;;5079226;28;20112;-47
2024/04/04 09:45:32;;;;;;;0.40;0.30;;;19.10;51.60;;;;;;5100988;28;20067;-45
2024/04/04 09:47:59;;;;;;;0.68;0.20;;;19.10;51.60;;;;;;5095470;28;20032;-44
2024/04/04 09:50:25;;;;;;;0.20;0.17;;;19.20;51.60;;;;;;5077117;28;20079;-47
2024/04/04 09:52:51;;;;;;;1.17;0.20;;;19.10;51.50;;;;;;5102662;28;20046;-45
2024/04/04 09:55:20;;;;;;;0.22;0.20;;;19.10;51.60;;;;;;5086046;28;21050;-45
2024/04/04 09:57:47;;;;;;;1.50;0.20;;;19.10;51.50;;;;;;5084069;28;20070;-44
2024/04/04 10:00:16;;;;;;;0.20;0.20;;;19.10;51.50;;;;;;5092086;28;20088;-45
2024/04/04 10:02:48;;;;;;;1.20;0.20;;;19.00;51.40;;;;;;5094492;28;20039;-47
2024/04/04 10:05:16;;;;;;;0.35;0.30;;;19.10;51.60;;;;;;5093748;28;20765;-43
2024/04/04 10:07:44;;;;;;;0.20;0.20;;;19.10;51.60;;;;;;5095416;28;20040;-47
2024/04/04 10:10:14;;;;;;;0.50;0.30;;;19.10;51.50;;;;;;5091335;28;20039;-48
2024/04/04 10:12:43;;;;;;;0.35;0.30;;;19.10;51.50;;;;;;5078253;28;20123;-46
2024/04/04 10:15:09;;;;;;;0.50;0.20;;;19.10;51.50;;;;;;5085145;28;20033;-46
2024/04/04 10:17:44;;;;;;;0.30;0.30;;;19.00;51.50;;;;;;5083660;28;20039;-51
2024/04/04 10:20:11;;;;;;;0.60;0.20;;;19.00;51.50;;;;;;5073904;28;20025;-47
2024/04/04 10:22:37;;;;;;;1.65;0.20;;;19.00;51.60;;;;;;5092503;28;20028;-49
2024/04/04 10:25:04;;;;;;;0.60;0.40;;;19.10;51.60;;;;;;5082202;28;20059;-46
2024/04/04 10:27:30;;;;;;;0.80;0.30;;;19.10;51.60;;;;;;5074469;28;20462;-50
2024/04/04 10:29:56;;;;;;;0.60;0.22;;;19.10;51.60;;;;;;5089322;28;20276;-49
2024/04/04 10:32:22;;;;;;;2.05;0.40;;;19.10;51.50;;;;;;5093850;28;20054;-49
2024/04/04 10:35:02;;;;;;;0.38;0.30;;;19.00;51.50;;;;;;5091550;28;20611;-46
2024/04/04 10:37:29;;;;;;;0.40;0.25;;;19.00;51.50;;;;;;5092160;28;20043;-47
2024/04/04 10:39:56;;;;;;;;;;;19.00;51.60;;;;;;5089989;28;20032;-47
2024/04/04 10:42:23;;;;;;;1.27;0.38;;;19.00;51.60;;;;;;5087093;28;19986;-46
2024/04/04 10:44:55;;;;;;;0.30;0.30;;;19.10;51.60;;;;;;5082300;28;20034;-46
2024/04/04 10:47:21;;;;;;;0.98;0.22;;;19.10;51.50;;;;;;5080894;28;20064;-49
2024/04/04 10:49:48;;;;;;;0.20;0.20;;;19.00;51.50;;;;;;5077156;28;20049;-48
2024/04/04 10:52:15;;;;;;;0.40;0.30;;;19.00;51.50;;;;;;5071166;28;20068;-45
2024/04/04 10:54:41;;;;;;;;;;;19.00;51.50;;;;;;5072114;28;20036;-45
2024/04/04 10:57:07;;;;;;;0.50;0.30;;;19.00;51.50;;;;;;5073715;28;19919;-47
2024/04/04 10:59:33;;;;;;;0.30;0.22;;;19.00;51.60;;;;;;5090434;28;20093;-44
2024/04/04 11:02:03;;;;;;;0.60;0.30;;;19.10;51.60;;;;;;5093670;28;20036;-45
2024/04/04 11:04:30;;;;;;;0.38;0.28;;;19.10;51.60;;;;;;5100783;28;20024;-44
2024/04/04 11:06:57;;;;;;;0.82;0.30;;;19.10;51.60;;;;;;5083677;28;20032;-47
2024/04/04 11:09:25;;;;;;;0.22;0.22;;;19.00;51.50;;;;;;5071323;28;20044;-49
2024/04/04 11:11:53;;;;;;;0.50;0.35;;;19.00;51.50;;;;;;5098934;28;20024;-49
2024/04/04 11:14:23;;;;;;;0.60;0.40;;;19.00;51.50;;;;;;5091860;28;20068;-47
2024/04/04 11:16:55;;;;;;;0.70;0.40;;;19.00;51.60;;;;;;5089590;28;20028;-47
2024/04/04 11:19:23;;;;;;;0.40;0.22;;;19.00;51.70;;;;;;5089182;28;20037;-47
2024/04/04 11:21:50;;;;;;;0.43;0.28;;;19.00;51.70;;;;;;5075670;28;20432;-49
2024/04/04 11:24:17;;;;;;;0.38;0.28;;;19.10;51.70;;;;;;5082349;28;20119;-45
2024/04/04 11:26:43;;;;;;;;;;;19.00;51.60;;;;;;5097924;28;20700;-44
2024/04/04 11:29:09;;;;;;;0.65;0.30;;;19.00;51.60;;;;;;5082043;28;19912;-47
2024/04/04 11:31:35;;;;;;;0.55;0.30;;;19.00;51.60;;;;;;5089643;28;20028;-48
2024/04/04 11:34:03;;;;;;;0.80;0.30;;;19.00;51.60;;;;;;5081091;28;20104;-45
2024/04/04 11:36:29;;;;;;;0.28;0.25;;;18.90;51.60;;;;;;5074216;28;20067;-45
2024/04/04 11:38:56;;;;;;;0.30;0.20;;;19.00;51.70;;;;;;5079492;28;20078;-45
2024/04/04 11:41:24;;;;;;;0.68;0.30;;;19.00;51.60;;;;;;5082480;28;20207;-47
2024/04/04 11:43:50;;;;;;;1.27;0.30;;;19.00;51.60;;;;;;5093766;28;20036;-46
2024/04/04 11:46:17;;;;;;;0.35;0.25;;;19.00;51.60;;;;;;5093161;28;20468;-45
2024/04/04 11:48:44;;;;;;;1.52;0.20;;;19.00;51.60;;;;;;5072795;28;20445;-44
2024/04/04 11:51:11;;;;;;;0.65;0.30;;;19.00;51.60;;;;;;5066522;28;20037;-44
2024/04/04 11:53:37;;;;;;;0.63;0.32;;;18.90;51.60;;;;;;5085669;28;20036;-48
2024/04/04 11:56:05;;;;;;;0.30;0.30;;;19.00;51.70;;;;;;5093994;28;20115;-45
2024/04/04 11:58:32;;;;;;;0.20;0.20;;;19.00;51.70;;;;;;5077159;28;20029;-48
2024/04/04 12:00:58;;;;;;;;;;;19.00;51.60;;;;;;5083229;28;20028;-48
2024/04/04 12:03:24;;;;;;;0.68;0.28;;;19.00;51.60;;;;;;5084629;28;20024;-46
2024/04/04 12:05:51;;;;;;;2.75;0.40;;;19.00;51.60;;;;;;5090119;28;20119;-49
2024/04/04 12:08:17;;;;;;;0.38;0.30;;;18.90;51.60;;;;;;5083377;28;20421;-49
2024/04/04 12:10:43;;;;;;;0.50;0.30;;;18.90;51.60;;;;;;5073751;28;20040;-47
2024/04/04 12:13:11;;;;;;;1.10;0.30;;;19.00;51.70;;;;;;5067947;28;20041;-48
2024/04/04 12:15:37;;;;;;;;;;;19.00;51.60;;;;;;5080586;28;20028;-45
2024/04/04 12:20:50;;;;;;;0.30;0.30;;;19.00;51.60;;;;;;5052828;28;20040;-48
2024/04/04 12:23:16;;;;;;;0.60;0.30;;;19.00;51.60;;;;;;5077727;28;20443;-49
2024/04/04 12:25:46;;;;;;;0.93;0.28;;;18.90;51.50;;;;;;5072340;28;20341;-46
2024/04/04 12:28:16;;;;;;;0.30;0.28;;;18.90;51.60;;;;;;5085538;28;20097;-50
2024/04/04 12:30:42;;;;;;;0.85;0.30;;;19.00;51.70;;;;;;5083265;28;20028;-45
2024/04/04 12:33:08;;;;;;;0.82;0.40;;;19.00;52.10;;;;;;5087253;28;20051;-46
2024/04/04 12:35:35;;;;;;;1.08;0.30;;;19.00;51.50;;;;;;5082830;28;20066;-49
2024/04/04 12:38:01;;;;;;;0.30;0.20;;;19.00;51.50;;;;;;5086297;28;20028;-47
2024/04/04 12:40:27;;;;;;;0.47;0.30;;;19.00;51.50;;;;;;5091465;28;20039;-46
2024/04/04 12:42:54;;;;;;;0.22;0.20;;;19.00;51.50;;;;;;5081771;28;20088;-44
2024/04/04 12:45:20;;;;;;;0.30;0.30;;;18.90;51.40;;;;;;5082239;28;20040;-44
2024/04/04 12:47:46;;;;;;;0.50;0.30;;;19.00;51.50;;;;;;5081784;28;20040;-47
2024/04/04 12:50:12;;;;;;;0.38;0.32;;;19.10;51.50;;;;;;5087018;28;20047;-49
2024/04/04 12:52:38;;;;;;;0.40;0.35;;;19.00;51.40;;;;;;5088721;28;20040;-46
2024/04/04 12:55:05;;;;;;;0.73;0.20;;;19.00;51.40;;;;;;5081721;28;20085;-50
2024/04/04 12:57:31;;;;;;;0.32;0.32;;;19.10;51.40;;;;;;5087941;28;20028;-47